Time;durP1;ratioP1;P1;durP2;ratioP2;P2;SDS_P1;SDS_P2;PMS_P1;PMS_P2;Temp;Humidity;BMP_temperature;BMP_pressure;BME280_temperature;BME280_humidity;BME280_pressure;Samples;Min_cycle;Max_cycle;Signal;HPM_P1;HPM_P2
2024/01/28 00:01:41;;;;;;;9.35;2.35;;;5.70;99.90;;;;;;5070184;28;20123;-61
2024/01/28 00:04:09;;;;;;;9.88;2.00;;;5.70;99.90;;;;;;5076575;28;20071;-61
2024/01/28 00:06:37;;;;;;;15.05;2.08;;;5.80;99.90;;;;;;5090113;28;20041;-62
2024/01/28 00:09:06;;;;;;;12.55;2.80;;;5.80;99.90;;;;;;5103455;28;20043;-62
2024/01/28 00:11:33;;;;;;;13.70;2.40;;;5.80;99.90;;;;;;5110228;28;20044;-63
2024/01/28 00:14:01;;;;;;;11.30;2.38;;;5.80;99.90;;;;;;5100090;28;20044;-63
2024/01/28 00:16:29;;;;;;;6.45;2.03;;;5.90;99.90;;;;;;5077050;28;20063;-63
2024/01/28 00:19:00;;;;;;;11.48;1.95;;;5.80;99.90;;;;;;5084754;28;20040;-63
2024/01/28 00:21:28;;;;;;;10.43;2.25;;;5.80;99.90;;;;;;5089915;28;20075;-62
2024/01/28 00:23:57;;;;;;;15.95;2.50;;;5.90;99.90;;;;;;5094740;28;20036;-64
2024/01/28 00:26:24;;;;;;;11.02;2.20;;;5.90;99.90;;;;;;5103068;28;20048;-63
2024/01/28 00:28:52;;;;;;;13.18;1.77;;;5.90;99.90;;;;;;5084914;28;20056;-62
2024/01/28 00:31:20;;;;;;;13.20;2.03;;;5.90;99.90;;;;;;5078851;28;20048;-64
2024/01/28 00:33:47;;;;;;;11.15;2.88;;;5.90;99.90;;;;;;5072773;28;20036;-66
2024/01/28 00:36:16;;;;;;;11.43;2.30;;;5.90;99.90;;;;;;5089830;28;20048;-63
2024/01/28 00:38:43;;;;;;;11.63;2.35;;;5.90;99.90;;;;;;5089350;28;20498;-63
2024/01/28 00:41:23;;;;;;;15.55;2.92;;;5.90;99.90;;;;;;5088179;28;20051;-62
2024/01/28 00:43:52;;;;;;;9.70;1.73;;;5.80;99.90;;;;;;5087880;28;20040;-62
2024/01/28 00:46:21;;;;;;;20.80;2.03;;;5.80;99.90;;;;;;5075443;28;20051;-62
2024/01/28 00:48:49;;;;;;;11.90;2.85;;;5.80;99.90;;;;;;5089078;28;20040;-63
2024/01/28 00:51:17;;;;;;;17.60;2.15;;;5.90;99.90;;;;;;5089468;28;20066;-64
2024/01/28 00:53:45;;;;;;;15.15;3.70;;;5.80;99.90;;;;;;5100279;28;20409;-64
2024/01/28 00:56:16;;;;;;;13.68;2.47;;;5.80;99.90;;;;;;5104841;28;20047;-62
2024/01/28 00:58:45;;;;;;;15.35;5.25;;;5.90;99.90;;;;;;5082533;28;20044;-63
2024/01/28 01:01:13;;;;;;;15.20;2.88;;;5.90;99.90;;;;;;5068481;28;20442;-63
2024/01/28 01:03:41;;;;;;;8.48;2.03;;;5.80;99.90;;;;;;5067774;28;20048;-62
2024/01/28 01:06:09;;;;;;;14.10;2.38;;;5.80;99.90;;;;;;5085714;28;20052;-62
2024/01/28 01:08:37;;;;;;;11.30;2.53;;;5.80;99.90;;;;;;5087506;28;20052;-63
2024/01/28 01:11:08;;;;;;;10.90;2.40;;;5.80;99.90;;;;;;5070642;28;20455;-63
2024/01/28 01:13:36;;;;;;;12.85;2.58;;;5.90;99.90;;;;;;5085170;28;20048;-63
2024/01/28 01:16:04;;;;;;;9.10;2.45;;;5.90;99.90;;;;;;5074881;28;20044;-65
2024/01/28 01:18:32;;;;;;;15.85;3.22;;;5.80;99.90;;;;;;5088378;28;20052;-62
2024/01/28 01:21:01;;;;;;;15.95;2.92;;;5.80;99.90;;;;;;5088914;28;20055;-64
2024/01/28 01:23:30;;;;;;;10.00;2.45;;;5.90;99.90;;;;;;5096285;28;20046;-65
2024/01/28 01:25:57;;;;;;;17.10;2.60;;;5.90;99.90;;;;;;5105572;28;20486;-62
2024/01/28 01:28:31;;;;;;;10.68;2.20;;;5.90;99.90;;;;;;5086147;28;20075;-66
2024/01/28 01:31:02;;;;;;;11.40;2.60;;;5.90;99.90;;;;;;5068051;28;20052;-72
2024/01/28 01:33:30;;;;;;;9.00;2.63;;;5.90;99.90;;;;;;5068834;28;20040;-72
2024/01/28 01:35:58;;;;;;;12.68;2.42;;;5.90;99.90;;;;;;5106733;28;20039;-71
2024/01/28 01:38:25;;;;;;;9.57;2.75;;;5.90;99.90;;;;;;5087946;28;20048;-68
2024/01/28 01:40:53;;;;;;;8.77;3.08;;;5.90;99.90;;;;;;5087396;28;20048;-69
2024/01/28 01:43:21;;;;;;;13.40;3.20;;;5.90;99.90;;;;;;5087980;28;20040;-70
2024/01/28 01:45:49;;;;;;;16.67;2.92;;;6.00;99.90;;;;;;5081898;28;20522;-68
2024/01/28 01:48:17;;;;;;;9.07;2.33;;;5.90;99.90;;;;;;5087826;28;20059;-70
2024/01/28 01:50:45;;;;;;;12.68;2.65;;;6.00;99.90;;;;;;5087125;28;20040;-70
2024/01/28 01:53:13;;;;;;;10.13;2.13;;;6.00;99.90;;;;;;5093699;28;20048;-72
2024/01/28 01:55:41;;;;;;;11.93;2.38;;;5.90;99.90;;;;;;5108152;28;20062;-68
2024/01/28 01:58:10;;;;;;;9.93;2.65;;;6.00;99.90;;;;;;5084223;28;20043;-72
2024/01/28 02:00:38;;;;;;;12.77;2.58;;;6.00;99.90;;;;;;5069472;28;20459;-71
2024/01/28 02:03:06;;;;;;;15.60;3.25;;;6.00;99.90;;;;;;5068025;28;20041;-63
2024/01/28 02:05:34;;;;;;;8.13;2.10;;;6.00;99.90;;;;;;5085672;28;20056;-70
2024/01/28 02:08:02;;;;;;;15.48;2.08;;;6.10;99.90;;;;;;5086942;28;20040;-70
2024/01/28 02:10:30;;;;;;;12.95;2.38;;;6.10;99.90;;;;;;5084590;28;20897;-71
2024/01/28 02:12:57;;;;;;;10.07;2.55;;;6.10;99.90;;;;;;5087812;28;20055;-70
2024/01/28 02:15:25;;;;;;;11.25;1.98;;;6.10;99.90;;;;;;5072073;28;20041;-70
2024/01/28 02:17:53;;;;;;;10.23;2.65;;;6.20;99.90;;;;;;5084826;28;20048;-70
2024/01/28 02:20:21;;;;;;;12.98;2.40;;;6.20;99.90;;;;;;5087951;28;20051;-69
2024/01/28 02:22:48;;;;;;;10.50;2.88;;;6.20;99.90;;;;;;5088678;28;20054;-65
2024/01/28 02:25:16;;;;;;;17.27;3.53;;;6.20;99.90;;;;;;5103137;28;20052;-64
2024/01/28 02:27:46;;;;;;;20.52;2.88;;;6.20;99.90;;;;;;5088138;28;20048;-66
2024/01/28 02:30:15;;;;;;;8.23;1.92;;;6.20;99.90;;;;;;5075139;28;20048;-63
2024/01/28 02:32:50;;;;;;;10.90;2.47;;;6.20;99.90;;;;;;5070514;28;20049;-61
2024/01/28 02:35:18;;;;;;;12.93;2.35;;;6.30;99.90;;;;;;5069621;28;20040;-62
2024/01/28 02:37:47;;;;;;;11.82;2.92;;;6.30;99.90;;;;;;5086208;28;20419;-65
2024/01/28 02:40:15;;;;;;;14.90;2.90;;;6.30;99.90;;;;;;5089762;28;20063;-66
2024/01/28 02:42:43;;;;;;;11.68;3.13;;;6.30;99.90;;;;;;5092539;28;20041;-63
2024/01/28 02:45:11;;;;;;;10.05;2.70;;;6.30;99.90;;;;;;5081978;28;20056;-63
2024/01/28 02:47:39;;;;;;;10.60;2.08;;;6.30;99.90;;;;;;5089537;28;20048;-63
2024/01/28 02:50:07;;;;;;;12.50;2.60;;;6.30;99.90;;;;;;5093624;28;20048;-63
2024/01/28 02:52:35;;;;;;;10.23;2.53;;;6.30;99.90;;;;;;5096397;28;20052;-62
2024/01/28 02:55:02;;;;;;;14.60;3.20;;;6.30;99.90;;;;;;5113839;28;20047;-65
2024/01/28 02:57:30;;;;;;;15.63;2.63;;;6.30;99.90;;;;;;5099111;28;20090;-63
2024/01/28 02:59:58;;;;;;;8.98;2.00;;;6.30;99.90;;;;;;5093402;28;20048;-62
2024/01/28 03:02:26;;;;;;;17.52;2.42;;;6.30;99.90;;;;;;5093515;28;20056;-63
2024/01/28 03:04:54;;;;;;;15.20;3.67;;;6.30;99.90;;;;;;5094316;28;20047;-62
2024/01/28 03:07:21;;;;;;;19.00;2.78;;;6.30;99.90;;;;;;5094450;28;20044;-63
2024/01/28 03:09:49;;;;;;;11.32;2.35;;;6.40;99.90;;;;;;5093986;28;20392;-63
2024/01/28 03:12:17;;;;;;;11.43;2.25;;;6.40;99.90;;;;;;5089437;28;20442;-69
2024/01/28 03:14:45;;;;;;;11.43;2.40;;;6.40;99.90;;;;;;5074016;28;20377;-66
2024/01/28 03:17:12;;;;;;;11.07;2.10;;;6.40;99.90;;;;;;5084994;28;20048;-70
2024/01/28 03:19:40;;;;;;;13.50;2.90;;;6.40;99.90;;;;;;5094406;28;20631;-71
2024/01/28 03:22:08;;;;;;;9.15;2.50;;;6.40;99.90;;;;;;5094185;28;20475;-62
2024/01/28 03:24:36;;;;;;;11.68;2.42;;;6.40;99.90;;;;;;5112859;28;20051;-64
2024/01/28 03:27:04;;;;;;;9.85;2.10;;;6.50;99.90;;;;;;5100731;28;20058;-63
2024/01/28 03:29:32;;;;;;;11.23;2.28;;;6.50;99.90;;;;;;5087832;28;20047;-62
2024/01/28 03:31:59;;;;;;;10.63;1.95;;;6.50;99.90;;;;;;5094088;28;20066;-62
2024/01/28 03:34:27;;;;;;;8.85;1.92;;;6.50;99.90;;;;;;5093921;28;20040;-63
2024/01/28 03:36:55;;;;;;;14.32;2.95;;;6.50;99.90;;;;;;5093919;28;20398;-64
2024/01/28 03:39:22;;;;;;;14.88;2.72;;;6.50;99.90;;;;;;5094005;28;20055;-63
2024/01/28 03:41:50;;;;;;;11.10;3.20;;;6.50;99.90;;;;;;5093920;28;20048;-63
2024/01/28 03:44:22;;;;;;;12.27;2.50;;;6.50;99.90;;;;;;5092550;28;20035;-63
2024/01/28 03:46:51;;;;;;;11.07;2.00;;;6.50;99.90;;;;;;5092694;28;20040;-63
2024/01/28 03:49:19;;;;;;;11.55;2.13;;;6.50;99.90;;;;;;5093477;28;20052;-63
2024/01/28 03:51:47;;;;;;;9.05;2.10;;;6.50;99.90;;;;;;5073451;28;20059;-63
2024/01/28 03:54:15;;;;;;;10.93;2.00;;;6.50;99.90;;;;;;5103103;28;20039;-64
2024/01/28 03:56:42;;;;;;;10.55;2.22;;;6.60;99.90;;;;;;5107938;28;20510;-63
2024/01/28 03:59:11;;;;;;;13.27;2.40;;;6.60;99.90;;;;;;5076218;28;20392;-63
2024/01/28 04:01:39;;;;;;;8.13;2.65;;;6.60;99.90;;;;;;5073321;28;20040;-64
2024/01/28 04:04:07;;;;;;;10.10;1.83;;;6.60;99.90;;;;;;5073094;28;20045;-65
2024/01/28 04:06:44;;;;;;;12.48;2.45;;;6.60;99.90;;;;;;5082595;28;20048;-69
2024/01/28 04:09:13;;;;;;;19.00;3.90;;;6.60;99.90;;;;;;5093497;28;20040;-70
2024/01/28 04:11:41;;;;;;;18.50;2.22;;;6.60;99.90;;;;;;5092967;28;20040;-69
2024/01/28 04:14:08;;;;;;;9.77;2.70;;;6.60;99.90;;;;;;5092772;28;20044;-65
2024/01/28 04:16:36;;;;;;;9.50;2.47;;;6.60;99.90;;;;;;5091897;28;20048;-66
2024/01/28 04:19:04;;;;;;;10.52;2.20;;;6.60;99.90;;;;;;5093122;28;20048;-71
2024/01/28 04:21:32;;;;;;;17.88;3.53;;;6.60;99.90;;;;;;5093291;28;20475;-71
2024/01/28 04:24:00;;;;;;;9.65;1.88;;;6.60;99.90;;;;;;5104806;28;20394;-70
2024/01/28 04:26:28;;;;;;;6.88;2.45;;;6.70;99.90;;;;;;5109847;28;20040;-70
2024/01/28 04:28:56;;;;;;;15.23;2.58;;;6.70;99.90;;;;;;5092682;28;20052;-67
2024/01/28 04:31:26;;;;;;;11.10;3.00;;;6.70;99.90;;;;;;5092739;28;20495;-71
2024/01/28 04:33:54;;;;;;;9.88;1.95;;;6.60;99.90;;;;;;5089144;28;20032;-72
2024/01/28 04:36:22;;;;;;;6.65;2.47;;;6.70;99.90;;;;;;5092896;28;20044;-72
2024/01/28 04:38:50;;;;;;;11.20;2.17;;;6.70;99.90;;;;;;5091690;28;20047;-71
2024/01/28 04:41:17;;;;;;;9.65;2.20;;;6.70;99.90;;;;;;5092841;28;20048;-66
2024/01/28 04:43:45;;;;;;;7.70;2.75;;;6.70;99.90;;;;;;5092499;28;20118;-71
2024/01/28 04:46:16;;;;;;;10.32;2.63;;;6.60;99.90;;;;;;5092515;28;20048;-67
2024/01/28 04:48:44;;;;;;;6.00;2.42;;;6.70;99.90;;;;;;5092545;28;20101;-67
2024/01/28 04:51:12;;;;;;;8.57;2.15;;;6.70;99.90;;;;;;5092685;28;20048;-69
2024/01/28 04:53:40;;;;;;;12.85;2.53;;;6.70;99.90;;;;;;5102149;28;20043;-72
2024/01/28 04:56:11;;;;;;;12.93;2.30;;;6.70;99.90;;;;;;5112561;28;20051;-72
2024/01/28 04:58:39;;;;;;;13.55;4.07;;;6.70;99.90;;;;;;5090692;28;20396;-71
2024/01/28 05:01:07;;;;;;;7.68;2.42;;;6.70;99.90;;;;;;5092282;28;20040;-72
2024/01/28 05:03:35;;;;;;;15.70;3.57;;;6.70;99.90;;;;;;5091897;28;20400;-70
2024/01/28 05:06:04;;;;;;;12.10;3.00;;;6.70;99.90;;;;;;5091833;28;20605;-65
2024/01/28 05:08:32;;;;;;;10.43;1.88;;;6.70;99.90;;;;;;5092468;28;20402;-71
2024/01/28 05:11:00;;;;;;;13.90;3.63;;;6.70;99.90;;;;;;5091883;28;20399;-65
2024/01/28 05:13:27;;;;;;;14.93;3.22;;;6.70;99.90;;;;;;5092156;28;20051;-65
2024/01/28 05:15:56;;;;;;;8.95;3.05;;;6.70;99.90;;;;;;5092228;28;20372;-72
2024/01/28 05:18:24;;;;;;;10.20;2.60;;;6.70;99.90;;;;;;5091968;28;20047;-71
2024/01/28 05:20:52;;;;;;;13.05;2.95;;;6.70;99.90;;;;;;5091942;28;20051;-72
2024/01/28 05:23:19;;;;;;;13.07;3.03;;;6.70;99.90;;;;;;5099784;28;20040;-70
2024/01/28 05:25:47;;;;;;;10.75;3.20;;;6.70;99.90;;;;;;5112493;28;20546;-66
2024/01/28 05:28:15;;;;;;;8.27;2.42;;;6.70;99.90;;;;;;5093949;28;20050;-71
2024/01/28 05:30:43;;;;;;;9.38;2.88;;;6.70;99.90;;;;;;5090682;28;20067;-70
2024/01/28 05:33:10;;;;;;;15.55;3.10;;;6.70;99.90;;;;;;5091419;28;20047;-68
2024/01/28 05:35:38;;;;;;;8.88;3.03;;;6.80;99.90;;;;;;5091795;28;20044;-64
2024/01/28 05:38:06;;;;;;;13.25;3.13;;;6.70;99.90;;;;;;5091689;28;20048;-64
2024/01/28 05:40:34;;;;;;;10.85;3.05;;;6.70;99.90;;;;;;5091890;28;20467;-65
2024/01/28 05:43:01;;;;;;;9.65;2.55;;;6.70;99.90;;;;;;5091798;28;20040;-65
2024/01/28 05:45:29;;;;;;;7.60;2.40;;;6.70;99.90;;;;;;5091629;28;20044;-64
2024/01/28 05:48:01;;;;;;;12.82;2.70;;;6.70;99.90;;;;;;5078729;28;20400;-64
2024/01/28 05:50:30;;;;;;;9.57;2.45;;;6.70;99.90;;;;;;5087769;28;20499;-64
2024/01/28 05:52:57;;;;;;;9.77;3.30;;;6.70;99.90;;;;;;5092914;28;20044;-64
2024/01/28 05:55:25;;;;;;;10.57;3.15;;;6.70;99.90;;;;;;5090517;28;20047;-67
2024/01/28 05:57:53;;;;;;;10.13;3.03;;;6.70;99.90;;;;;;5087229;28;20395;-66
2024/01/28 06:00:21;;;;;;;11.02;2.42;;;6.80;99.90;;;;;;5070839;28;20048;-68
2024/01/28 06:02:49;;;;;;;7.30;2.47;;;6.70;99.90;;;;;;5063733;28;20049;-72
2024/01/28 06:05:17;;;;;;;11.90;2.78;;;6.80;99.90;;;;;;5065592;28;20059;-67
2024/01/28 06:07:44;;;;;;;6.82;2.55;;;6.80;99.90;;;;;;5080217;28;20052;-63
2024/01/28 06:10:12;;;;;;;9.00;2.65;;;6.80;99.90;;;;;;5084692;28;20056;-64
2024/01/28 06:12:40;;;;;;;9.93;2.58;;;6.70;99.90;;;;;;5087314;28;20051;-64
2024/01/28 06:15:08;;;;;;;8.13;2.45;;;6.70;99.90;;;;;;5087603;28;20056;-64
2024/01/28 06:17:36;;;;;;;10.20;2.88;;;6.80;99.90;;;;;;5074306;28;20048;-64
2024/01/28 06:20:05;;;;;;;8.10;3.25;;;6.70;99.90;;;;;;5068844;28;20302;-65
2024/01/28 06:22:33;;;;;;;10.05;2.67;;;6.80;99.90;;;;;;5097300;28;20392;-64
2024/01/28 06:25:01;;;;;;;13.77;2.38;;;6.70;99.90;;;;;;5106574;28;20036;-63
2024/01/28 06:27:30;;;;;;;19.45;4.63;;;6.70;99.90;;;;;;5091460;28;20079;-64
2024/01/28 06:29:57;;;;;;;9.70;3.22;;;6.70;99.90;;;;;;5088166;28;20054;-64
2024/01/28 06:32:25;;;;;;;8.20;2.20;;;6.80;99.90;;;;;;5091032;28;20047;-63
2024/01/28 06:34:53;;;;;;;9.93;1.90;;;6.80;99.90;;;;;;5091637;28;20051;-64
2024/01/28 06:37:21;;;;;;;13.30;2.42;;;6.80;99.90;;;;;;5073136;28;20048;-63
2024/01/28 06:39:51;;;;;;;11.80;2.97;;;6.80;99.90;;;;;;5092007;28;20047;-66
2024/01/28 06:42:19;;;;;;;10.55;2.17;;;6.80;99.90;;;;;;5096340;28;20071;-71
2024/01/28 06:44:47;;;;;;;7.07;2.10;;;6.80;99.90;;;;;;5091334;28;20063;-64
2024/01/28 06:47:15;;;;;;;9.13;2.20;;;6.80;99.90;;;;;;5091423;28;20036;-70
2024/01/28 06:49:43;;;;;;;5.22;1.77;;;6.80;99.90;;;;;;5072354;28;20480;-72
2024/01/28 06:52:11;;;;;;;9.15;2.58;;;6.80;99.90;;;;;;5074955;28;20052;-71
2024/01/28 06:54:41;;;;;;;9.65;2.00;;;6.80;99.90;;;;;;5091432;28;20048;-69
2024/01/28 06:57:13;;;;;;;13.10;2.17;;;6.80;99.90;;;;;;5091167;28;20048;-69
2024/01/28 06:59:44;;;;;;;14.90;1.95;;;6.60;99.90;;;;;;5090559;28;20047;-69
2024/01/28 07:02:12;;;;;;;6.45;1.85;;;6.90;99.90;;;;;;5091094;28;20418;-70
2024/01/28 07:04:40;;;;;;;12.30;2.05;;;6.80;99.90;;;;;;5087988;28;20403;-70
2024/01/28 07:07:08;;;;;;;10.77;3.17;;;6.90;99.90;;;;;;5088727;28;20052;-68
2024/01/28 07:09:36;;;;;;;9.90;2.25;;;6.90;99.90;;;;;;5084967;28;20047;-69
2024/01/28 07:12:06;;;;;;;5.55;1.40;;;6.90;99.90;;;;;;5088638;28;20053;-72
2024/01/28 07:14:34;;;;;;;8.68;1.90;;;6.90;99.90;;;;;;5088785;28;20052;-65
2024/01/28 07:17:02;;;;;;;5.03;1.42;;;6.90;99.90;;;;;;5088670;28;20536;-70
2024/01/28 07:19:30;;;;;;;5.85;1.80;;;6.90;99.90;;;;;;5078963;28;20052;-68
2024/01/28 07:21:58;;;;;;;5.25;1.70;;;6.90;99.90;;;;;;5089869;28;20055;-65
2024/01/28 07:24:26;;;;;;;9.15;2.00;;;6.80;99.90;;;;;;5091236;28;20047;-66
2024/01/28 07:26:53;;;;;;;7.15;1.90;;;6.80;99.90;;;;;;5088722;28;20036;-68
2024/01/28 07:29:21;;;;;;;17.92;2.15;;;6.90;99.90;;;;;;5086345;28;20435;-64
2024/01/28 07:31:48;;;;;;;12.02;2.05;;;6.80;99.90;;;;;;5089697;28;20510;-64
2024/01/28 07:34:19;;;;;;;5.28;1.70;;;6.80;99.90;;;;;;5083417;28;20048;-64
2024/01/28 07:36:48;;;;;;;12.75;1.95;;;6.80;99.90;;;;;;5073655;28;20051;-64
2024/01/28 07:39:16;;;;;;;8.43;1.48;;;6.80;99.90;;;;;;5090632;28;20044;-63
2024/01/28 07:41:44;;;;;;;6.53;1.92;;;6.80;99.90;;;;;;5089078;28;20063;-65
2024/01/28 07:44:11;;;;;;;4.47;1.63;;;6.80;99.90;;;;;;5088345;28;20408;-71
2024/01/28 07:46:40;;;;;;;6.07;1.50;;;6.80;99.90;;;;;;5090504;28;20051;-71
2024/01/28 07:49:07;;;;;;;12.23;2.00;;;6.80;99.90;;;;;;5080091;28;20400;-72
2024/01/28 07:51:36;;;;;;;8.10;1.63;;;6.80;99.90;;;;;;5094823;28;20051;-73
2024/01/28 07:54:04;;;;;;;5.90;1.50;;;6.80;99.90;;;;;;5090437;28;20043;-72
2024/01/28 07:56:32;;;;;;;5.43;2.03;;;6.80;99.90;;;;;;5090369;28;20051;-72
2024/01/28 07:58:59;;;;;;;5.13;1.95;;;6.80;99.90;;;;;;5089802;28;20059;-72
2024/01/28 08:01:30;;;;;;;9.32;2.63;;;6.80;99.90;;;;;;5089063;28;20040;-72
2024/01/28 08:03:58;;;;;;;7.22;1.60;;;6.80;99.90;;;;;;5074702;28;20037;-73
2024/01/28 08:06:27;;;;;;;4.57;1.70;;;6.80;99.90;;;;;;5066859;28;20053;-72
2024/01/28 08:08:55;;;;;;;7.50;1.55;;;6.80;99.90;;;;;;5084338;28;20048;-72
2024/01/28 08:11:22;;;;;;;9.98;2.03;;;6.80;99.90;;;;;;5088554;28;20047;-68
2024/01/28 08:13:50;;;;;;;10.88;2.70;;;6.80;99.90;;;;;;5090125;28;20048;-67
2024/01/28 08:16:18;;;;;;;5.68;1.98;;;6.80;99.90;;;;;;5088283;28;20426;-64
2024/01/28 08:18:46;;;;;;;10.80;2.15;;;6.80;99.90;;;;;;5086088;28;20051;-64
2024/01/28 08:21:14;;;;;;;5.68;1.90;;;6.80;99.90;;;;;;5069820;28;20045;-65
2024/01/28 08:23:42;;;;;;;9.85;3.35;;;6.80;99.90;;;;;;5087613;28;20044;-65
2024/01/28 08:26:12;;;;;;;5.30;2.00;;;6.80;99.90;;;;;;5089692;28;20415;-64
2024/01/28 08:28:40;;;;;;;9.50;2.50;;;6.80;99.90;;;;;;5089149;28;20079;-65
2024/01/28 08:31:07;;;;;;;9.35;2.38;;;6.80;99.90;;;;;;5089660;28;20051;-66
2024/01/28 08:33:35;;;;;;;12.05;2.40;;;6.80;99.90;;;;;;5094864;28;20059;-64
2024/01/28 08:36:03;;;;;;;7.53;2.40;;;6.80;99.90;;;;;;5069705;28;20032;-66
2024/01/28 08:38:32;;;;;;;7.88;2.78;;;6.80;99.90;;;;;;5086060;28;20594;-69
2024/01/28 08:41:00;;;;;;;10.73;2.55;;;6.80;99.90;;;;;;5088891;28;20059;-72
2024/01/28 08:43:28;;;;;;;12.23;2.20;;;6.80;99.90;;;;;;5088930;28;20395;-69
2024/01/28 08:45:55;;;;;;;6.45;1.92;;;6.80;99.90;;;;;;5085243;28;20044;-70
2024/01/28 08:48:23;;;;;;;6.40;2.03;;;6.80;99.90;;;;;;5079601;28;20103;-64
2024/01/28 08:50:51;;;;;;;7.90;2.10;;;6.80;99.90;;;;;;5068884;28;20412;-64
2024/01/28 08:53:18;;;;;;;9.05;2.55;;;6.70;99.90;;;;;;5081220;28;20052;-64
2024/01/28 08:55:46;;;;;;;9.05;2.85;;;6.70;99.90;;;;;;5087216;28;20050;-64
2024/01/28 08:58:14;;;;;;;8.88;2.38;;;6.70;99.90;;;;;;5085472;28;20059;-64
2024/01/28 09:00:41;;;;;;;5.50;2.40;;;6.70;99.90;;;;;;5084807;28;20039;-64
2024/01/28 09:03:09;;;;;;;10.10;3.10;;;6.60;99.90;;;;;;5085518;28;20047;-65
2024/01/28 09:05:37;;;;;;;9.60;2.92;;;6.60;99.90;;;;;;5086299;28;20059;-63
2024/01/28 09:08:05;;;;;;;14.00;2.40;;;6.60;99.90;;;;;;5088700;28;20052;-68
2024/01/28 09:10:32;;;;;;;7.30;2.35;;;6.60;99.90;;;;;;5080356;28;20048;-63
2024/01/28 09:13:00;;;;;;;8.05;2.13;;;6.50;99.90;;;;;;5077692;28;20056;-64
2024/01/28 09:15:28;;;;;;;8.18;1.98;;;6.50;99.90;;;;;;5088513;28;20550;-64
2024/01/28 09:17:56;;;;;;;8.35;2.05;;;6.50;99.90;;;;;;5087480;28;20063;-64
2024/01/28 09:20:24;;;;;;;12.73;2.75;;;6.50;99.90;;;;;;5074596;28;20056;-63
2024/01/28 09:22:51;;;;;;;5.47;2.45;;;6.40;99.90;;;;;;5076427;28;20044;-64
2024/01/28 09:25:19;;;;;;;6.90;2.42;;;6.40;99.90;;;;;;5087964;28;20044;-65
2024/01/28 09:27:48;;;;;;;15.90;4.18;;;6.40;99.90;;;;;;5082300;28;20044;-63
2024/01/28 09:30:16;;;;;;;8.27;2.50;;;6.30;99.90;;;;;;5085444;28;20055;-63
2024/01/28 09:32:46;;;;;;;8.88;4.20;;;6.30;99.90;;;;;;5092921;28;20040;-65
2024/01/28 09:35:14;;;;;;;;;;;6.30;99.90;;;;;;5076736;28;20053;-65
2024/01/28 09:37:42;;;;;;;11.00;2.30;;;6.30;99.90;;;;;;5076644;28;19931;-70
2024/01/28 09:40:13;;;;;;;10.80;1.92;;;6.30;99.90;;;;;;5074228;28;20442;-64
2024/01/28 09:42:56;;;;;;;11.43;2.55;;;6.30;99.90;;;;;;5088115;28;20643;-64
2024/01/28 09:45:26;;;;;;;9.10;2.30;;;6.30;99.90;;;;;;5078041;28;20049;-64
2024/01/28 09:47:54;;;;;;;7.00;1.80;;;6.30;99.90;;;;;;5080534;28;20051;-66
2024/01/28 09:50:23;;;;;;;10.45;2.58;;;6.30;99.90;;;;;;5066738;28;20056;-70
2024/01/28 09:52:51;;;;;;;10.15;2.38;;;6.40;99.90;;;;;;5085580;28;20567;-70
2024/01/28 09:55:19;;;;;;;8.55;2.40;;;6.40;99.90;;;;;;5108642;28;20050;-66
2024/01/28 09:57:47;;;;;;;7.35;1.98;;;6.40;99.90;;;;;;5098697;28;20055;-71
2024/01/28 10:00:16;;;;;;;11.07;3.30;;;6.40;99.90;;;;;;5088280;28;20056;-69
2024/01/28 10:02:45;;;;;;;9.70;2.17;;;6.40;99.90;;;;;;5073374;28;20051;-70
2024/01/28 10:05:14;;;;;;;10.35;2.60;;;6.50;99.90;;;;;;5071960;28;20053;-65
2024/01/28 10:07:49;;;;;;;;;;;6.50;99.90;;;;;;5075130;28;20032;-67
2024/01/28 10:10:17;;;;;;;5.65;1.90;;;6.50;99.90;;;;;;5077123;28;19927;-68
2024/01/28 10:12:49;;;;;;;4.07;2.30;;;6.50;99.90;;;;;;5085435;28;20048;-66
2024/01/28 10:15:23;;;;;;;9.55;2.38;;;6.60;99.90;;;;;;5103364;28;20051;-65
2024/01/28 10:17:50;;;;;;;7.97;2.22;;;6.70;99.90;;;;;;5085331;28;20044;-63
2024/01/28 10:20:21;;;;;;;5.35;2.00;;;6.70;99.90;;;;;;5075086;28;20043;-63
2024/01/28 10:22:51;;;;;;;8.15;2.13;;;6.80;99.90;;;;;;5093626;28;20406;-64
2024/01/28 10:25:21;;;;;;;16.98;2.58;;;6.90;99.90;;;;;;5087924;28;20040;-64
2024/01/28 10:27:53;;;;;;;13.30;2.58;;;7.00;99.90;;;;;;5087907;28;20396;-63
2024/01/28 10:30:22;;;;;;;8.75;2.92;;;7.00;99.90;;;;;;5086477;28;20043;-63
2024/01/28 10:32:50;;;;;;;8.63;2.42;;;7.10;99.90;;;;;;5083240;28;20052;-64
2024/01/28 10:35:17;;;;;;;6.72;2.58;;;7.20;99.90;;;;;;5086280;28;20048;-64
2024/01/28 10:37:52;;;;;;;12.05;2.40;;;7.30;99.90;;;;;;5087646;28;20033;-66
2024/01/28 10:40:20;;;;;;;10.38;2.15;;;7.30;99.90;;;;;;5087708;28;20496;-64
2024/01/28 10:42:49;;;;;;;9.93;1.88;;;7.40;99.90;;;;;;5095092;28;20044;-63
2024/01/28 10:45:19;;;;;;;4.85;1.55;;;7.40;99.90;;;;;;5108328;28;20047;-63
2024/01/28 10:48:05;;;;;;;7.88;2.45;;;7.50;99.90;;;;;;5099279;28;20048;-64
2024/01/28 10:50:34;;;;;;;12.50;1.98;;;7.50;99.90;;;;;;5078480;28;20051;-67
2024/01/28 10:53:04;;;;;;;8.15;2.40;;;7.50;99.90;;;;;;5078139;28;20483;-64
2024/01/28 10:55:33;;;;;;;8.10;2.35;;;7.60;99.90;;;;;;5075573;28;20048;-69
2024/01/28 10:58:04;;;;;;;6.60;2.50;;;7.60;99.90;;;;;;5074618;28;20032;-70
2024/01/28 11:00:33;;;;;;;10.52;3.17;;;7.60;99.90;;;;;;5078644;28;20072;-68
2024/01/28 11:03:02;;;;;;;6.77;2.17;;;7.60;99.90;;;;;;5086331;28;20059;-63
2024/01/28 11:05:30;;;;;;;4.72;2.08;;;7.70;99.90;;;;;;5084246;28;20048;-71
2024/01/28 11:08:01;;;;;;;9.68;2.22;;;7.70;99.90;;;;;;5075415;28;20063;-67
2024/01/28 11:10:33;;;;;;;9.57;2.38;;;7.70;99.90;;;;;;5067464;28;20040;-69
2024/01/28 11:13:04;;;;;;;6.63;1.98;;;7.70;99.90;;;;;;5083596;28;20044;-66
2024/01/28 11:15:32;;;;;;;7.07;2.17;;;7.80;99.90;;;;;;5078259;28;20052;-70
2024/01/28 11:18:01;;;;;;;12.52;3.13;;;7.80;99.90;;;;;;5080785;28;20059;-71
2024/01/28 11:20:33;;;;;;;16.02;3.03;;;7.80;99.90;;;;;;5077443;28;20508;-72
2024/01/28 11:23:01;;;;;;;6.88;2.47;;;7.90;99.90;;;;;;5074512;28;20059;-65
2024/01/28 11:25:30;;;;;;;6.43;2.28;;;8.00;99.90;;;;;;5075249;28;20055;-70
2024/01/28 11:28:00;;;;;;;8.18;2.88;;;8.00;99.90;;;;;;5077046;28;20391;-68
2024/01/28 11:30:29;;;;;;;8.48;2.63;;;8.00;99.90;;;;;;5085898;28;20055;-72
2024/01/28 11:33:11;;;;;;;10.15;2.42;;;8.00;99.90;;;;;;5086904;28;20411;-73
2024/01/28 11:35:44;;;;;;;7.03;2.00;;;8.10;99.90;;;;;;5086336;28;20044;-72
2024/01/28 11:38:21;;;;;;;9.45;2.30;;;8.10;99.90;;;;;;5080840;28;20177;-72
2024/01/28 11:40:57;;;;;;;5.28;2.20;;;8.10;99.90;;;;;;5084598;28;20052;-71
2024/01/28 11:43:24;;;;;;;9.68;1.98;;;8.10;99.90;;;;;;5086028;28;20040;-65
2024/01/28 11:45:52;;;;;;;8.15;2.38;;;8.10;99.90;;;;;;5085773;28;20055;-64
2024/01/28 11:48:21;;;;;;;6.65;2.30;;;8.20;99.90;;;;;;5087240;28;20048;-67
2024/01/28 11:50:49;;;;;;;5.80;2.17;;;8.20;99.90;;;;;;5086765;28;20550;-66
2024/01/28 11:53:17;;;;;;;7.85;2.33;;;8.20;99.90;;;;;;5084161;28;20109;-63
2024/01/28 11:55:45;;;;;;;9.05;2.25;;;8.30;99.90;;;;;;5087123;28;20044;-65
2024/01/28 11:58:13;;;;;;;9.93;2.35;;;8.20;99.90;;;;;;5086474;28;20399;-63
2024/01/28 12:00:41;;;;;;;6.50;1.73;;;8.30;99.90;;;;;;5087071;28;20646;-71
2024/01/28 12:03:09;;;;;;;10.50;2.42;;;8.30;99.90;;;;;;5086486;28;20377;-67
2024/01/28 12:05:37;;;;;;;16.50;3.40;;;8.30;99.90;;;;;;5086813;28;20048;-64
2024/01/28 12:08:06;;;;;;;8.65;2.75;;;8.30;99.90;;;;;;5086607;28;20044;-67
2024/01/28 12:10:35;;;;;;;12.82;2.65;;;8.40;99.90;;;;;;5070666;28;20037;-65
2024/01/28 12:13:05;;;;;;;7.22;2.17;;;8.40;99.90;;;;;;5070283;28;20839;-65
2024/01/28 12:15:34;;;;;;;6.60;2.45;;;8.50;99.90;;;;;;5076718;28;20053;-63
2024/01/28 12:18:02;;;;;;;10.45;2.47;;;8.50;99.90;;;;;;5080975;28;20059;-63
2024/01/28 12:20:32;;;;;;;;;;;8.50;99.90;;;;;;5094797;28;20062;-63
2024/01/28 12:22:59;;;;;;;3.58;1.98;;;8.50;99.90;;;;;;5086365;28;19928;-64
2024/01/28 12:25:27;;;;;;;11.25;2.40;;;8.50;99.90;;;;;;5065850;28;20051;-64
2024/01/28 12:27:55;;;;;;;8.75;2.88;;;8.50;99.90;;;;;;5071414;28;20036;-63
2024/01/28 12:30:24;;;;;;;11.45;2.22;;;8.50;99.90;;;;;;5081936;28;20056;-63
2024/01/28 12:32:52;;;;;;;6.93;2.20;;;8.50;99.90;;;;;;5078640;28;20055;-64
2024/01/28 12:35:20;;;;;;;9.82;2.85;;;8.50;99.90;;;;;;5085787;28;20048;-63
2024/01/28 12:37:48;;;;;;;7.72;2.50;;;8.70;99.90;;;;;;5082374;28;20036;-66
2024/01/28 12:40:15;;;;;;;6.03;2.42;;;8.80;99.90;;;;;;5085333;28;20391;-64
2024/01/28 12:42:43;;;;;;;8.18;2.67;;;8.90;99.90;;;;;;5086426;28;20518;-64
2024/01/28 12:45:12;;;;;;;7.75;1.98;;;8.90;99.90;;;;;;5105649;28;20545;-64
2024/01/28 12:47:40;;;;;;;9.00;2.33;;;9.00;99.90;;;;;;5100159;28;20050;-69
2024/01/28 12:50:09;;;;;;;9.05;2.20;;;9.10;99.90;;;;;;5075842;28;20055;-67
2024/01/28 12:52:37;;;;;;;9.20;2.63;;;9.10;99.90;;;;;;5076197;28;20051;-65
2024/01/28 12:55:06;;;;;;;6.15;2.65;;;9.10;99.90;;;;;;5085393;28;20036;-67
2024/01/28 12:57:36;;;;;;;6.72;2.28;;;9.10;99.90;;;;;;5085636;28;20052;-65
2024/01/28 13:00:07;;;;;;;10.40;2.58;;;9.00;99.90;;;;;;5081382;28;20041;-64